createdAt,value
2024-03-12T00:00:46.796Z,100811.25
2024-03-12T00:03:13.402Z,100814.78
2024-03-12T00:05:41.879Z,100816.34
2024-03-12T00:08:08.901Z,100806.09
2024-03-12T00:10:35.554Z,100806.13
2024-03-12T00:13:03.192Z,100810.44
2024-03-12T00:15:30.214Z,100814.63
2024-03-12T00:17:56.966Z,100811.25
2024-03-12T00:20:36.482Z,100809.91
2024-03-12T00:23:03.403Z,100819.63
2024-03-12T00:25:31.740Z,100827.66
2024-03-12T00:27:58.479Z,100821.72
2024-03-12T00:30:31.958Z,100825.94
2024-03-12T00:32:59.312Z,100828.91
2024-03-12T00:35:29.274Z,100830.25
2024-03-12T00:37:58.105Z,100826.44
2024-03-12T00:40:34.182Z,100825.41
2024-03-12T00:43:01.540Z,100837.63
2024-03-12T00:45:30.848Z,100834.47
2024-03-12T00:47:58.530Z,100828.59
2024-03-12T00:50:25.205Z,100840.03
2024-03-12T00:52:54.345Z,100840.66
2024-03-12T00:55:22.121Z,100841.78
2024-03-12T00:57:53.866Z,100841.22
2024-03-12T01:00:26.911Z,100843.19
2024-03-12T01:02:55.404Z,100836.59
2024-03-12T01:05:26.659Z,100848.19
2024-03-12T01:08:00.034Z,100836.59
2024-03-12T01:10:31.591Z,100848.56
2024-03-12T01:13:00.160Z,100843.56
2024-03-12T01:15:27.767Z,100845.38
2024-03-12T01:17:55.271Z,100858.44
2024-03-12T01:20:23.092Z,100862.25
2024-03-12T01:22:51.700Z,100860.03
2024-03-12T01:25:19.166Z,100856.81
2024-03-12T01:27:45.707Z,100854.69
2024-03-12T01:30:15.645Z,100853.63
2024-03-12T01:32:42.687Z,100862.09
2024-03-12T01:35:09.592Z,100860.38
2024-03-12T01:37:44.189Z,100860.94
2024-03-12T01:40:22.706Z,100855.81
2024-03-12T01:42:55.303Z,100856.47
2024-03-12T01:45:23.975Z,100853.06
2024-03-12T01:47:56.045Z,100855.66
2024-03-12T01:50:25.788Z,100856.44
2024-03-12T01:52:59.425Z,100844.63
2024-03-12T01:55:26.197Z,100853.31
2024-03-12T01:57:55.779Z,100853.16
2024-03-12T02:00:22.905Z,100851.38
2024-03-12T02:02:53.489Z,100851.09
2024-03-12T02:05:20.928Z,100852.97
2024-03-12T02:07:50.952Z,100847.88
2024-03-12T02:10:20.101Z,100853.44
2024-03-12T02:12:47.470Z,100860.25
2024-03-12T02:15:18.902Z,100860.78
2024-03-12T02:17:46.107Z,100858.66
2024-03-12T02:20:14.009Z,100859.78
2024-03-12T02:22:41.401Z,100856.31
2024-03-12T02:25:11.304Z,100859.91
2024-03-12T02:27:38.938Z,100854.53
2024-03-12T02:30:06.244Z,100855.09
2024-03-12T02:32:33.765Z,100851.31
2024-03-12T02:35:00.557Z,100854.59
2024-03-12T02:37:27.086Z,100854.09
2024-03-12T02:39:53.608Z,100845.72
2024-03-12T02:42:20.218Z,100844.31
2024-03-12T02:44:47.029Z,100852.63
2024-03-12T02:47:14.084Z,100860.97
2024-03-12T02:49:40.862Z,100855.81
2024-03-12T02:52:07.999Z,100846.19
2024-03-12T02:54:34.562Z,100857.31
2024-03-12T02:57:01.151Z,100846.59
2024-03-12T02:59:28.534Z,100849.84
2024-03-12T03:01:58.540Z,100844.63
2024-03-12T03:04:25.134Z,100853.72
2024-03-12T03:06:52.568Z,100844.94
2024-03-12T03:09:19.753Z,100856.97
2024-03-12T03:11:46.467Z,100852.75
2024-03-12T03:14:13.026Z,100847.38
2024-03-12T03:16:39.509Z,100855.38
2024-03-12T03:19:06.561Z,100857.16
2024-03-12T03:21:33.158Z,100839.16
2024-03-12T03:23:59.823Z,100839.78
2024-03-12T03:26:26.378Z,100850.22
2024-03-12T03:28:52.883Z,100846.16
2024-03-12T03:31:19.478Z,100848.72
2024-03-12T03:33:48.640Z,100841.97
2024-03-12T03:36:15.423Z,100838.47
2024-03-12T03:38:42.134Z,100844.56
2024-03-12T03:41:10.494Z,100839.94
2024-03-12T03:43:38.682Z,100837.91
2024-03-12T03:46:06.241Z,100849.25
2024-03-12T03:48:32.820Z,100840.16
2024-03-12T03:50:59.338Z,100848.03
2024-03-12T03:53:26.103Z,100857.94
2024-03-12T03:55:55.437Z,100850.59
2024-03-12T03:58:24.739Z,100848.72
2024-03-12T04:00:54.204Z,100847.06
2024-03-12T04:03:21.804Z,100853.66
2024-03-12T04:05:48.536Z,100866.06
2024-03-12T04:08:17.305Z,100868.75
2024-03-12T04:10:43.948Z,100865.09
2024-03-12T04:13:10.826Z,100864.56
2024-03-12T04:15:37.547Z,100869.19
2024-03-12T04:18:04.234Z,100868.31
2024-03-12T04:20:30.807Z,100871.03
2024-03-12T04:22:57.426Z,100874.13
2024-03-12T04:25:24.021Z,100876.69
2024-03-12T04:27:52.006Z,100872.06
2024-03-12T04:30:19.739Z,100865.03
2024-03-12T04:32:48.670Z,100881.69
2024-03-12T04:35:15.287Z,100879.06
2024-03-12T04:37:42.132Z,100876.31
2024-03-12T04:40:09.409Z,100877.97
2024-03-12T04:42:37.796Z,100885.44
2024-03-12T04:45:08.802Z,100879.06
2024-03-12T04:47:38.385Z,100881.56
2024-03-12T04:50:05.479Z,100870.50
2024-03-12T04:52:34.805Z,100882.84
2024-03-12T04:55:01.751Z,100868.91
2024-03-12T04:57:28.436Z,100874.84
2024-03-12T04:59:55.742Z,100886.69
2024-03-12T05:02:22.232Z,100888.28
2024-03-12T05:04:48.712Z,100899.69
2024-03-12T05:07:15.265Z,100897.00
2024-03-12T05:09:41.827Z,100903.38
2024-03-12T05:12:08.482Z,100907.97
2024-03-12T05:14:35.072Z,100896.38
2024-03-12T05:17:01.600Z,100903.72
2024-03-12T05:19:28.129Z,100903.56
2024-03-12T05:21:54.731Z,100903.13
2024-03-12T05:24:21.303Z,100903.44
2024-03-12T05:26:50.508Z,100909.78
2024-03-12T05:29:18.759Z,100909.63
2024-03-12T05:31:45.464Z,100907.44
2024-03-12T05:34:20.113Z,100905.38
2024-03-12T05:36:49.916Z,100910.16
2024-03-12T05:39:20.590Z,100912.78
2024-03-12T05:41:50.566Z,100920.06
2024-03-12T05:44:35.504Z,100915.53
2024-03-12T05:47:20.421Z,100931.53
2024-03-12T05:49:46.895Z,100930.81
2024-03-12T05:52:13.510Z,100928.56
2024-03-12T05:54:41.624Z,100929.94
2024-03-12T05:57:08.203Z,100934.88
2024-03-12T05:59:34.676Z,100931.38
2024-03-12T06:02:01.895Z,100936.03
2024-03-12T06:04:33.156Z,100943.94
2024-03-12T06:07:02.953Z,100954.94
2024-03-12T06:09:29.897Z,100943.00
2024-03-12T06:11:56.406Z,100950.56
2024-03-12T06:14:26.304Z,100955.41
2024-03-12T06:16:52.987Z,100957.69
2024-03-12T06:19:20.541Z,100973.78
2024-03-12T06:21:47.524Z,100965.03
2024-03-12T06:24:14.133Z,100966.53
2024-03-12T06:26:41.283Z,100966.75
2024-03-12T06:29:08.241Z,100982.63
2024-03-12T06:31:35.967Z,100961.00
2024-03-12T06:34:03.293Z,100976.41
2024-03-12T06:36:29.834Z,100969.44
2024-03-12T06:38:56.328Z,100980.94
2024-03-12T06:41:25.514Z,100981.19
2024-03-12T06:43:52.145Z,100983.34
2024-03-12T06:46:20.917Z,100977.97
2024-03-12T06:48:48.491Z,100981.63
2024-03-12T06:51:16.729Z,100993.16
2024-03-12T06:53:44.449Z,100985.06
2024-03-12T06:56:12.657Z,100991.84
2024-03-12T06:58:45.989Z,100978.00
2024-03-12T07:01:14.771Z,100986.66
2024-03-12T07:03:43.830Z,100989.34
2024-03-12T07:06:10.418Z,100993.84
2024-03-12T07:08:40.127Z,100988.63
2024-03-12T07:11:08.625Z,100992.41
2024-03-12T07:13:35.550Z,100991.75
2024-03-12T07:16:04.204Z,100995.75
2024-03-12T07:18:30.748Z,100996.69
2024-03-12T07:20:57.379Z,101000.50
2024-03-12T07:23:23.914Z,101011.34
2024-03-12T07:25:50.986Z,101002.28
2024-03-12T07:28:20.735Z,101000.75
2024-03-12T07:30:51.246Z,101011.88
2024-03-12T07:33:18.037Z,101004.50
2024-03-12T07:35:44.697Z,101009.09
2024-03-12T07:38:11.191Z,101009.56
2024-03-12T07:40:39.309Z,101005.34
2024-03-12T07:43:07.095Z,100999.09
2024-03-12T07:45:33.770Z,101008.91
2024-03-12T07:48:00.428Z,101023.50
2024-03-12T07:50:31.862Z,101023.03
2024-03-12T07:52:58.421Z,101018.56
2024-03-12T07:55:26.424Z,101021.13
2024-03-12T07:57:53.006Z,101031.38
2024-03-12T08:00:20.388Z,101023.03
2024-03-12T08:02:47.065Z,101028.22
2024-03-12T08:05:14.056Z,101028.91
2024-03-12T08:07:41.015Z,101025.81
2024-03-12T08:10:10.558Z,101036.97
2024-03-12T08:12:40.412Z,101038.16
2024-03-12T08:15:08.282Z,101037.94
2024-03-12T08:17:34.930Z,101045.28
2024-03-12T08:20:01.471Z,101038.53
2024-03-12T08:22:28.281Z,101049.84
2024-03-12T08:24:56.058Z,101035.19
2024-03-12T08:27:22.640Z,101042.38
2024-03-12T08:29:49.229Z,101050.47
2024-03-12T08:32:15.804Z,101043.34
2024-03-12T08:34:43.066Z,101038.41
2024-03-12T08:37:12.695Z,101033.06
2024-03-12T08:39:39.489Z,101037.72
2024-03-12T08:42:08.711Z,101030.19
2024-03-12T08:44:35.296Z,101033.50
2024-03-12T08:47:01.760Z,101044.06
2024-03-12T08:49:28.250Z,101044.16
2024-03-12T08:51:54.781Z,101050.97
2024-03-12T08:54:21.314Z,101046.59
2024-03-12T08:56:47.833Z,101048.50
2024-03-12T08:59:15.081Z,101051.41
2024-03-12T09:01:41.953Z,101047.78
2024-03-12T09:04:09.295Z,101056.22
2024-03-12T09:06:36.270Z,101050.47
2024-03-12T09:09:02.822Z,101051.16
2024-03-12T09:11:29.431Z,101062.03
2024-03-12T09:13:55.970Z,101057.03
2024-03-12T09:16:22.950Z,101063.13
2024-03-12T09:18:49.664Z,101065.16
2024-03-12T09:21:16.507Z,101070.38
2024-03-12T09:23:53.477Z,101072.56
2024-03-12T09:26:28.835Z,101083.81
2024-03-12T09:28:55.392Z,101070.53
2024-03-12T09:31:21.984Z,101078.06
2024-03-12T09:33:49.101Z,101077.84
2024-03-12T09:36:15.918Z,101080.75
2024-03-12T09:38:45.052Z,101084.91
2024-03-12T09:41:14.304Z,101087.34
2024-03-12T09:43:45.043Z,101099.03
2024-03-12T09:46:17.514Z,101102.31
2024-03-12T09:48:46.128Z,101093.97
2024-03-12T09:51:13.273Z,101086.69
2024-03-12T09:53:42.301Z,101088.66
2024-03-12T09:56:09.497Z,101098.28
2024-03-12T09:58:36.040Z,101105.78
2024-03-12T10:01:07.394Z,101095.31
2024-03-12T10:03:37.177Z,101106.66
2024-03-12T10:06:04.146Z,101103.59
2024-03-12T10:08:30.889Z,101103.25
2024-03-12T10:10:58.026Z,101107.72
2024-03-12T10:13:25.121Z,101103.63
2024-03-12T10:16:00.826Z,101094.97
2024-03-12T10:18:30.803Z,101097.28
2024-03-12T10:21:02.748Z,101098.94
2024-03-12T10:23:35.727Z,101105.63
2024-03-12T10:26:19.332Z,101101.31
2024-03-12T10:28:47.024Z,101107.28
2024-03-12T10:31:14.648Z,101110.78
2024-03-12T10:33:45.788Z,101119.97
2024-03-12T10:36:12.952Z,101115.50
2024-03-12T10:38:41.187Z,101117.88
2024-03-12T10:41:20.659Z,101122.06
2024-03-12T10:43:51.118Z,101115.50
2024-03-12T10:46:20.566Z,101115.72
2024-03-12T10:48:48.891Z,101108.47
2024-03-12T10:51:16.892Z,101108.94
2024-03-12T10:53:47.589Z,101104.00
2024-03-12T10:56:16.055Z,101108.47
2024-03-12T10:58:47.872Z,101112.66
2024-03-12T11:01:16.173Z,101111.72
2024-03-12T11:03:44.088Z,101102.94
2024-03-12T11:06:13.836Z,101118.34
2024-03-12T11:08:40.705Z,101119.28
2024-03-12T11:11:10.171Z,101114.69
2024-03-12T11:13:37.084Z,101118.78
2024-03-12T11:16:11.450Z,101113.69
2024-03-12T11:18:40.032Z,101117.38
2024-03-12T11:21:11.401Z,101114.91
2024-03-12T11:23:37.996Z,101112.22
2024-03-12T11:26:05.832Z,101103.84
2024-03-12T11:28:33.457Z,101116.16
2024-03-12T11:31:03.204Z,101113.75
2024-03-12T11:33:38.818Z,101109.31
2024-03-12T11:36:12.047Z,101119.25
2024-03-12T11:38:38.747Z,101121.22
2024-03-12T11:41:05.288Z,101112.81
2024-03-12T11:43:39.323Z,101108.78
2024-03-12T11:46:08.318Z,101112.00
2024-03-12T11:48:42.564Z,101115.72
2024-03-12T11:51:13.308Z,101111.03
2024-03-12T11:53:42.578Z,101113.63
2024-03-12T11:56:17.786Z,101120.66
2024-03-12T11:58:49.525Z,101113.41
2024-03-12T12:01:20.458Z,101103.63
2024-03-12T12:03:51.410Z,101117.38
2024-03-12T12:06:20.647Z,101110.09
2024-03-12T12:08:57.237Z,101104.69
2024-03-12T12:11:27.632Z,101117.25
2024-03-12T12:14:00.540Z,101102.66
2024-03-12T12:16:29.389Z,101111.25
2024-03-12T12:19:06.531Z,101110.69
2024-03-12T12:21:34.541Z,101109.34
2024-03-12T12:24:03.695Z,101109.84
2024-03-12T12:26:37.381Z,101109.75
2024-03-12T12:29:05.305Z,101114.00
2024-03-12T12:31:36.935Z,101110.19
2024-03-12T12:34:06.565Z,101111.16
2024-03-12T12:36:37.074Z,101101.78
2024-03-12T12:39:05.313Z,101110.66
2024-03-12T12:41:58.713Z,101103.94
2024-03-12T12:44:28.352Z,101102.69
2024-03-12T12:46:56.045Z,101103.19
2024-03-12T12:49:23.760Z,101105.94
2024-03-12T12:51:51.327Z,101106.66
2024-03-12T12:54:22.730Z,101100.94
2024-03-12T12:56:50.940Z,101100.16
2024-03-12T12:59:21.086Z,101111.22
2024-03-12T13:01:49.536Z,101106.50
2024-03-12T13:04:24.348Z,101103.41
2024-03-12T13:06:53.217Z,101099.25
2024-03-12T13:09:30.258Z,101097.63
2024-03-12T13:11:58.270Z,101106.44
2024-03-12T13:14:26.724Z,101098.63
2024-03-12T13:16:54.078Z,101101.72
2024-03-12T13:19:21.137Z,101100.91
2024-03-12T13:21:49.329Z,101100.28
2024-03-12T13:24:15.913Z,101097.78
2024-03-12T13:26:42.955Z,101103.09
2024-03-12T13:29:09.471Z,101094.31
2024-03-12T13:31:36.340Z,101105.03
2024-03-12T13:34:02.854Z,101103.31
2024-03-12T13:36:29.502Z,101095.75
2024-03-12T13:38:56.873Z,101101.44
2024-03-12T13:41:26.573Z,101100.53
2024-03-12T13:43:53.549Z,101104.88
2024-03-12T13:46:20.750Z,101110.22
2024-03-12T13:48:47.963Z,101099.88
2024-03-12T13:51:14.696Z,101102.13
2024-03-12T13:53:41.710Z,101105.03
2024-03-12T13:56:11.227Z,101118.19
2024-03-12T13:58:40.097Z,101114.41
2024-03-12T14:01:12.509Z,101118.34
2024-03-12T14:03:41.251Z,101113.06
2024-03-12T14:06:10.284Z,101113.19
2024-03-12T14:08:37.805Z,101109.47
2024-03-12T14:11:04.798Z,101121.53
2024-03-12T14:13:32.835Z,101110.16
2024-03-12T14:16:00.085Z,101117.69
2024-03-12T14:18:27.624Z,101117.03
2024-03-12T14:20:55.985Z,101124.03
2024-03-12T14:23:22.922Z,101125.66
2024-03-12T14:25:51.977Z,101128.22
2024-03-12T14:28:18.544Z,101132.81
2024-03-12T14:30:45.944Z,101137.28
2024-03-12T14:33:13.234Z,101139.44
2024-03-12T14:35:40.157Z,101138.06
2024-03-12T14:38:06.940Z,101137.13
2024-03-12T14:40:33.535Z,101146.72
2024-03-12T14:43:01.620Z,101143.44
2024-03-12T14:45:28.793Z,101140.66
2024-03-12T14:47:57.540Z,101132.59
2024-03-12T14:50:24.188Z,101141.56
2024-03-12T14:52:51.113Z,101147.34
2024-03-12T14:55:17.639Z,101144.47
2024-03-12T14:57:44.187Z,101150.41
2024-03-12T15:00:11.658Z,101139.16
2024-03-12T15:02:38.482Z,101141.75
2024-03-12T15:05:12.102Z,101137.34
2024-03-12T15:07:44.639Z,101149.53
2024-03-12T15:10:11.871Z,101142.78
2024-03-12T15:12:40.842Z,101147.09
2024-03-12T15:15:12.133Z,101143.91
2024-03-12T15:17:42.759Z,101151.28
2024-03-12T15:20:17.057Z,101142.16
2024-03-12T15:22:46.347Z,101151.53
2024-03-12T15:25:13.510Z,101150.06
2024-03-12T15:27:41.612Z,101144.63
2024-03-12T15:30:08.617Z,101149.81
2024-03-12T15:32:38.940Z,101155.69
2024-03-12T15:35:06.797Z,101146.38
2024-03-12T15:37:33.506Z,101149.22
2024-03-12T15:40:06.569Z,101158.78
2024-03-12T15:42:35.038Z,101160.91
2024-03-12T15:45:05.863Z,101154.09
2024-03-12T15:47:35.650Z,101154.84
2024-03-12T15:50:02.565Z,101151.38
2024-03-12T15:52:29.200Z,101152.91
2024-03-12T15:54:56.149Z,101141.94
2024-03-12T15:57:24.248Z,101152.25
2024-03-12T15:59:51.063Z,101152.94
2024-03-12T16:02:19.043Z,101151.56
2024-03-12T16:04:45.819Z,101159.94
2024-03-12T16:07:13.062Z,101150.94
2024-03-12T16:09:39.747Z,101146.25
2024-03-12T16:12:06.663Z,101163.50
2024-03-12T16:14:33.685Z,101159.59
2024-03-12T16:17:00.296Z,101153.66
2024-03-12T16:19:31.045Z,101159.09
2024-03-12T16:21:58.473Z,101148.03
2024-03-12T16:24:28.633Z,101157.38
2024-03-12T16:26:57.238Z,101158.50
2024-03-12T16:29:24.976Z,101156.94
2024-03-12T16:31:51.966Z,101156.28
2024-03-12T16:34:18.874Z,101160.56
2024-03-12T16:36:45.849Z,101161.59
2024-03-12T16:39:14.219Z,101166.72
2024-03-12T16:41:41.449Z,101163.56
2024-03-12T16:44:07.958Z,101164.25
2024-03-12T16:46:35.111Z,101161.06
2024-03-12T16:49:01.924Z,101166.28
2024-03-12T16:51:29.035Z,101157.66
2024-03-12T16:53:55.807Z,101163.13
2024-03-12T16:58:52.219Z,101162.16
2024-03-12T17:01:21.112Z,101164.59
2024-03-12T17:03:48.433Z,101160.28
2024-03-12T17:06:17.261Z,101152.72
2024-03-12T17:08:44.262Z,101158.66
2024-03-12T17:11:11.173Z,101163.41
2024-03-12T17:13:39.097Z,101175.72
2024-03-12T17:16:08.165Z,101173.09
2024-03-12T17:18:35.728Z,101175.56
2024-03-12T17:21:03.770Z,101177.50
2024-03-12T17:23:31.245Z,101176.38
2024-03-12T17:25:58.457Z,101179.19
2024-03-12T17:28:25.539Z,101185.56
2024-03-12T17:30:52.579Z,101181.41
2024-03-12T17:33:19.508Z,101185.34
2024-03-12T17:35:48.500Z,101182.13
2024-03-12T17:38:21.827Z,101184.41
2024-03-12T17:40:53.933Z,101182.44
2024-03-12T17:43:21.804Z,101183.06
2024-03-12T17:45:48.672Z,101181.97
2024-03-12T17:48:20.114Z,101190.72
2024-03-12T17:50:46.904Z,101184.19
2024-03-12T17:53:13.776Z,101189.44
2024-03-12T17:55:43.858Z,101183.63
2024-03-12T17:58:12.761Z,101197.25
2024-03-12T18:00:39.582Z,101200.63
2024-03-12T18:03:06.527Z,101195.03
2024-03-12T18:05:33.176Z,101201.03
2024-03-12T18:08:00.260Z,101198.41
2024-03-12T18:10:28.150Z,101200.53
2024-03-12T18:12:55.480Z,101201.03
2024-03-12T18:15:24.285Z,101199.91
2024-03-12T18:17:51.076Z,101199.34
2024-03-12T18:20:29.010Z,101199.63
2024-03-12T18:22:55.530Z,101200.81
2024-03-12T18:25:22.566Z,101209.94
2024-03-12T18:27:54.748Z,101204.91
2024-03-12T18:30:21.565Z,101202.53
2024-03-12T18:32:49.838Z,101204.94
2024-03-12T18:35:18.322Z,101200.59
2024-03-12T18:37:45.978Z,101209.38
2024-03-12T18:40:14.346Z,101214.78
2024-03-12T18:42:45.552Z,101212.66
2024-03-12T18:45:18.966Z,101213.00
2024-03-12T18:47:48.343Z,101213.28
2024-03-12T18:50:15.709Z,101216.72
2024-03-12T18:52:43.616Z,101220.53
2024-03-12T18:55:11.292Z,101219.91
2024-03-12T18:57:41.870Z,101218.16
2024-03-12T19:00:18.953Z,101224.66
2024-03-12T19:02:49.593Z,101228.31
2024-03-12T19:05:21.330Z,101215.94
2024-03-12T19:07:52.892Z,101223.38
2024-03-12T19:10:20.792Z,101231.34
2024-03-12T19:12:47.985Z,101222.63
2024-03-12T19:15:16.617Z,101222.44
2024-03-12T19:17:45.418Z,101225.69
2024-03-12T19:20:16.958Z,101226.56
2024-03-12T19:22:45.073Z,101225.63
2024-03-12T19:25:13.532Z,101233.25
2024-03-12T19:27:42.686Z,101233.72
2024-03-12T19:30:09.560Z,101230.31
2024-03-12T19:32:39.181Z,101237.09
2024-03-12T19:35:07.958Z,101235.28
2024-03-12T19:37:38.495Z,101236.88
2024-03-12T19:40:17.616Z,101241.75
2024-03-12T19:42:46.034Z,101248.69
2024-03-12T19:45:13.202Z,101244.50
2024-03-12T19:47:45.173Z,101243.97
2024-03-12T19:50:21.092Z,101238.75
2024-03-12T19:52:48.751Z,101247.66
2024-03-12T19:55:19.797Z,101250.38
2024-03-12T19:57:48.491Z,101243.97
2024-03-12T20:00:19.748Z,101249.41
2024-03-12T20:02:50.108Z,101242.09
2024-03-12T20:05:20.475Z,101249.06
2024-03-12T20:07:47.174Z,101241.94
2024-03-12T20:10:14.726Z,101249.66
2024-03-12T20:12:41.456Z,101236.47
2024-03-12T20:15:12.806Z,101245.81
2024-03-12T20:17:42.740Z,101237.59
2024-03-12T20:20:14.329Z,101233.91
2024-03-12T20:22:42.179Z,101235.75
2024-03-12T20:25:12.839Z,101234.19
2024-03-12T20:27:39.665Z,101236.16
2024-03-12T20:30:06.823Z,101226.19
2024-03-12T20:32:33.606Z,101231.19
2024-03-12T20:35:00.687Z,101232.84
2024-03-12T20:37:27.438Z,101231.59
2024-03-12T20:39:54.219Z,101230.47
2024-03-12T20:42:23.131Z,101224.44
2024-03-12T20:44:50.812Z,101223.63
2024-03-12T20:47:19.269Z,101227.38
2024-03-12T20:49:46.236Z,101225.34
2024-03-12T20:52:14.416Z,101230.28
2024-03-12T20:54:43.791Z,101232.16
2024-03-12T20:57:12.263Z,101233.47
2024-03-12T20:59:42.413Z,101221.94
2024-03-12T21:02:13.404Z,101230.06
2024-03-12T21:04:42.854Z,101231.00
2024-03-12T21:07:12.620Z,101223.94
2024-03-12T21:09:39.766Z,101238.25
2024-03-12T21:12:06.556Z,101223.44
2024-03-12T21:14:33.122Z,101235.47
2024-03-12T21:17:03.733Z,101230.16
2024-03-12T21:19:30.599Z,101228.19
2024-03-12T21:21:57.334Z,101229.59
2024-03-12T21:24:24.985Z,101237.59
2024-03-12T21:26:51.849Z,101234.16
2024-03-12T21:29:19.867Z,101240.81
2024-03-12T21:31:46.808Z,101237.75
2024-03-12T21:34:13.492Z,101236.53
2024-03-12T21:36:43.217Z,101225.28
2024-03-12T21:39:10.005Z,101233.66
2024-03-12T21:41:36.937Z,101231.53
2024-03-12T21:44:03.437Z,101231.53
2024-03-12T21:46:29.894Z,101240.34
2024-03-12T21:48:56.589Z,101234.53
2024-03-12T21:51:27.829Z,101236.84
2024-03-12T21:53:57.996Z,101245.19
2024-03-12T21:56:27.474Z,101244.16
2024-03-12T21:58:54.319Z,101235.69
2024-03-12T22:01:22.092Z,101244.41
2024-03-12T22:03:51.354Z,101239.63
2024-03-12T22:06:18.226Z,101243.19
2024-03-12T22:08:47.467Z,101244.69
2024-03-12T22:11:15.043Z,101237.75
2024-03-12T22:13:45.447Z,101248.94
2024-03-12T22:16:15.986Z,101252.09
2024-03-12T22:18:43.731Z,101246.97
2024-03-12T22:21:11.283Z,101249.06
2024-03-12T22:23:41.477Z,101259.00
2024-03-12T22:26:08.965Z,101250.09
2024-03-12T22:28:36.101Z,101251.41
2024-03-12T22:31:04.228Z,101254.59
2024-03-12T22:33:30.828Z,101261.28
2024-03-12T22:35:58.152Z,101262.19
2024-03-12T22:38:28.423Z,101254.22
2024-03-12T22:40:55.321Z,101261.41
2024-03-12T22:43:27.399Z,101266.03
2024-03-12T22:45:55.204Z,101267.19
2024-03-12T22:48:22.410Z,101266.66
2024-03-12T22:50:49.149Z,101261.53
2024-03-12T22:53:20.144Z,101264.56
2024-03-12T22:55:46.997Z,101270.50
2024-03-12T22:58:13.771Z,101268.06
2024-03-12T23:00:42.060Z,101272.81
2024-03-12T23:03:13.796Z,101265.84
2024-03-12T23:05:43.419Z,101260.03
2024-03-12T23:08:15.336Z,101262.47
2024-03-12T23:10:45.058Z,101261.06
2024-03-12T23:13:12.422Z,101261.44
2024-03-12T23:15:39.991Z,101261.88
2024-03-12T23:18:10.562Z,101256.56
2024-03-12T23:20:40.312Z,101263.41
2024-03-12T23:23:08.309Z,101260.44
2024-03-12T23:25:35.727Z,101265.19
2024-03-12T23:28:02.345Z,101268.50
2024-03-12T23:30:28.916Z,101255.13
2024-03-12T23:32:58.949Z,101265.88
2024-03-12T23:35:27.857Z,101267.63
2024-03-12T23:37:58.203Z,101271.88
2024-03-12T23:40:25.938Z,101259.47
2024-03-12T23:42:54.695Z,101268.16
2024-03-12T23:45:21.993Z,101262.97
2024-03-12T23:47:49.457Z,101277.09
2024-03-12T23:50:16.226Z,101272.56
2024-03-12T23:52:43.104Z,101273.22
2024-03-12T23:55:10.881Z,101267.47
2024-03-12T23:57:38.194Z,101273.25
